Time;durP1;ratioP1;P1;durP2;ratioP2;P2;SDS_P1;SDS_P2;PMS_P1;PMS_P2;Temp;Humidity;BMP_temperature;BMP_pressure;BME280_temperature;BME280_humidity;BME280_pressure;Samples;Min_cycle;Max_cycle;Signal;HPM_P1;HPM_P2
2022/07/19 00:00:20;;;;;;;;;7.75;7.00;;;;;30.79;29.26;101307.09;4932695;28;45385;-42
2022/07/19 00:02:45;;;;;;;;;9.00;6.50;;;;;30.77;29.54;101300.22;4931831;28;45227;-42
2022/07/19 00:05:13;;;;;;;;;9.50;8.25;;;;;30.76;30.19;101304.81;4931031;28;45523;-44
2022/07/19 00:07:38;;;;;;;;;11.50;10.00;;;;;30.74;29.75;101306.09;4929924;28;45512;-41
2022/07/19 00:10:07;;;;;;;;;10.75;8.75;;;;;30.72;29.38;101303.53;4930284;28;45440;-43
2022/07/19 00:12:33;;;;;;;;;10.75;8.00;;;;;30.70;30.01;101304.81;4932769;28;45454;-41
2022/07/19 00:14:58;;;;;;;;;11.25;8.75;;;;;30.67;29.54;101307.97;4930922;28;45389;-41
2022/07/19 00:17:24;;;;;;;;;13.00;12.25;;;;;30.64;29.80;101300.16;4931747;28;45685;-41
2022/07/19 00:19:49;;;;;;;;;10.00;7.25;;;;;30.63;30.03;101293.06;4930651;28;45271;-42
2022/07/19 00:22:15;;;;;;;;;11.00;8.00;;;;;30.62;29.95;101294.94;4932755;28;45287;-41
2022/07/19 00:24:40;;;;;;;;;8.50;7.00;;;;;30.60;30.22;101291.59;4931876;28;45390;-42
2022/07/19 00:27:06;;;;;;;;;9.00;9.00;;;;;30.55;29.71;101294.94;4933358;28;45379;-41
2022/07/19 00:29:31;;;;;;;;;8.25;7.25;;;;;30.49;30.00;101287.66;4932391;28;45227;-41
2022/07/19 00:31:57;;;;;;;;;9.75;8.00;;;;;30.48;30.03;101293.25;4931035;28;45155;-41
2022/07/19 00:34:22;;;;;;;;;9.50;7.50;;;;;30.44;30.07;101289.31;4931895;28;45171;-43
2022/07/19 00:36:48;;;;;;;;;8.75;7.00;;;;;30.41;29.77;101285.09;4929181;28;45638;-40
2022/07/19 00:39:13;;;;;;;;;7.25;6.75;;;;;30.40;29.94;101282.59;4929841;28;45275;-43
2022/07/19 00:41:43;;;;;;;;;9.50;8.75;;;;;30.39;30.31;101280.94;4933543;28;46477;-41
2022/07/19 00:44:10;;;;;;;;;8.75;8.00;;;;;30.39;30.06;101287.19;4932772;28;45475;-42
2022/07/19 00:46:36;;;;;;;;;8.00;6.75;;;;;30.38;30.27;101282.81;4932450;28;46234;-42
2022/07/19 00:49:03;;;;;;;;;11.00;9.50;;;;;30.35;29.74;101287.84;4933357;28;45299;-41
2022/07/19 00:51:28;;;;;;;;;9.25;7.50;;;;;30.30;29.85;101283.84;4932581;28;45398;-41
2022/07/19 00:53:56;;;;;;;;;9.25;8.25;;;;;30.28;29.91;101279.66;4932891;28;45516;-40
2022/07/19 00:56:24;;;;;;;;;8.00;8.00;;;;;30.25;30.17;101285.50;4935191;28;46280;-44
2022/07/19 00:58:51;;;;;;;;;7.25;7.00;;;;;30.25;30.16;101280.06;4918870;28;45325;-42
2022/07/19 01:01:17;;;;;;;;;10.75;9.25;;;;;30.26;31.08;101279.06;4935938;28;45305;-41
2022/07/19 01:03:43;;;;;;;;;9.00;8.75;;;;;30.27;30.48;101278.84;4936113;28;45718;-42
2022/07/19 01:06:09;;;;;;;;;9.75;8.00;;;;;30.25;30.09;101283.63;4936166;28;45310;-42
2022/07/19 01:08:36;;;;;;;;;8.75;7.50;;;;;30.20;29.87;101278.00;4935521;28;45323;-43
2022/07/19 01:11:04;;;;;;;;;8.75;7.00;;;;;30.15;30.40;101279.66;4935790;28;45442;-41
2022/07/19 01:13:30;;;;;;;;;10.00;7.00;;;;;30.10;30.50;101269.41;4935927;28;45480;-41
2022/07/19 01:15:55;;;;;;;;;9.25;7.50;;;;;30.07;30.01;101266.22;4935233;28;45330;-41
2022/07/19 01:18:21;;;;;;;;;11.75;9.00;;;;;30.04;30.67;101272.91;4938287;28;45321;-41
2022/07/19 01:20:46;;;;;;;;;7.75;7.50;;;;;30.03;30.00;101269.38;4936029;28;45593;-43
2022/07/19 01:23:12;;;;;;;;;7.50;7.50;;;;;30.06;30.42;101262.66;4935607;28;45459;-42
2022/07/19 01:25:37;;;;;;;;;8.50;7.50;;;;;30.06;31.06;101265.38;4935166;28;45368;-41
2022/07/19 01:28:06;;;;;;;;;9.75;7.25;;;;;30.08;30.53;101267.88;4935966;28;45631;-42
2022/07/19 01:30:32;;;;;;;;;10.75;8.75;;;;;30.07;30.43;101261.63;4935903;28;45492;-42
2022/07/19 01:32:57;;;;;;;;;9.75;7.50;;;;;30.07;31.16;101263.50;4935511;28;45382;-41
2022/07/19 01:35:23;;;;;;;;;7.00;6.50;;;;;30.08;30.88;101262.44;4935974;28;45440;-43
2022/07/19 01:37:50;;;;;;;;;10.00;8.00;;;;;30.03;30.14;101268.53;4935144;28;45426;-43
2022/07/19 01:40:16;;;;;;;;;7.50;6.00;;;;;29.94;30.51;101265.16;4933904;28;45454;-41
2022/07/19 01:42:44;;;;;;;;;6.75;6.25;;;;;29.90;30.21;101258.44;4935031;28;45464;-40
2022/07/19 01:45:11;;;;;;;;;8.75;7.00;;;;;29.84;30.05;101261.97;4935196;28;46199;-41
2022/07/19 01:47:38;;;;;;;;;4.25;4.25;;;;;29.78;30.26;101254.66;4934750;28;45398;-41
2022/07/19 01:50:05;;;;;;;;;6.25;6.25;;;;;29.73;30.73;101260.72;4937073;28;45469;-41
2022/07/19 01:52:31;;;;;;;;;5.00;5.00;;;;;29.68;30.13;101257.75;4935528;28;45441;-42
2022/07/19 01:54:57;;;;;;;;;7.75;6.75;;;;;29.62;29.98;101257.72;4934858;28;46305;-41
2022/07/19 01:57:22;;;;;;;;;8.00;6.00;;;;;29.58;30.14;101254.59;4934572;28;45361;-42
2022/07/19 01:59:48;;;;;;;;;7.75;7.75;;;;;29.54;30.64;101252.47;4935960;28;45210;-44
2022/07/19 02:02:13;;;;;;;;;6.00;6.00;;;;;29.49;30.69;101253.06;4935463;28;45666;-42
2022/07/19 02:04:39;;;;;;;;;7.75;6.50;;;;;29.45;30.06;101258.06;4935000;28;45974;-40
2022/07/19 02:07:04;;;;;;;;;7.00;5.75;;;;;29.43;30.55;101252.00;4934535;28;45238;-40
2022/07/19 02:09:30;;;;;;;;;5.25;5.00;;;;;29.40;30.94;101246.97;4934402;28;45497;-41
2022/07/19 02:11:55;;;;;;;;;9.75;6.75;;;;;29.38;30.31;101250.91;4935410;28;45254;-44
2022/07/19 02:14:21;;;;;;;;;8.75;5.75;;;;;29.34;30.86;101245.06;4934190;28;45776;-41
2022/07/19 02:16:46;;;;;;;;;6.25;6.25;;;;;29.32;30.92;101249.03;4936555;28;45485;-42
2022/07/19 02:19:12;;;;;;;;;8.50;6.25;;;;;29.27;30.44;101244.19;4933134;28;45590;-53
2022/07/19 02:21:38;;;;;;;;;7.75;6.00;;;;;29.22;30.90;101252.09;4932843;28;45374;-54
2022/07/19 02:24:05;;;;;;;;;8.00;5.00;;;;;29.17;30.55;101244.56;4936913;28;45345;-54
2022/07/19 02:26:31;;;;;;;;;5.50;5.00;;;;;29.10;30.67;101245.56;4930026;28;45486;-53
2022/07/19 02:28:57;;;;;;;;;6.75;6.00;;;;;29.09;31.03;101242.03;4928027;28;45239;-49
2022/07/19 02:31:23;;;;;;;;;8.50;6.00;;;;;29.07;30.83;101233.25;4924494;28;45315;-49
2022/07/19 02:33:48;;;;;;;;;9.50;7.50;;;;;29.06;31.08;101234.28;4924176;28;45509;-51
2022/07/19 02:36:14;;;;;;;;;6.75;6.00;;;;;29.04;31.27;101230.94;4924116;28;45382;-51
2022/07/19 02:38:40;;;;;;;;;5.25;5.25;;;;;29.05;30.87;101231.75;4926044;28;45327;-52
2022/07/19 02:41:05;;;;;;;;;3.75;3.00;;;;;29.06;31.21;101234.28;4934410;28;45432;-53
2022/07/19 02:43:31;;;;;;;;;8.75;6.25;;;;;29.07;31.00;101230.53;4934654;28;45852;-55
2022/07/19 02:45:56;;;;;;;;;6.25;5.00;;;;;29.05;30.89;101219.03;4934246;28;45876;-53
2022/07/19 02:48:22;;;;;;;;;6.00;6.00;;;;;29.05;30.64;101219.03;4933095;28;45546;-52
2022/07/19 02:50:48;;;;;;;;;10.75;7.75;;;;;29.04;30.72;101214.66;4931482;28;45468;-50
2022/07/19 02:53:14;;;;;;;;;7.25;6.25;;;;;29.03;30.60;101214.84;4932195;28;47286;-51
2022/07/19 02:55:40;;;;;;;;;11.50;7.00;;;;;29.00;31.53;101220.69;4932700;28;45378;-52
2022/07/19 02:58:05;;;;;;;;;7.50;7.00;;;;;28.96;30.93;101220.25;4930533;28;45393;-51
2022/07/19 03:00:31;;;;;;;;;7.00;6.50;;;;;28.91;31.31;101218.16;4930445;28;45377;-54
2022/07/19 03:05:48;;;;;;;;;6.25;6.25;;;;;28.83;31.22;101217.41;4925662;28;45609;-53
2022/07/19 03:08:14;;;;;;;;;5.75;5.75;;;;;28.79;31.17;101214.28;4933009;28;45425;-49
2022/07/19 03:10:40;;;;;;;;;7.75;7.25;;;;;28.76;31.79;101211.13;4931829;28;45397;-49
2022/07/19 03:13:05;;;;;;;;;5.75;5.00;;;;;28.74;31.06;101210.47;4932987;28;46187;-51
2022/07/19 03:15:31;;;;;;;;;7.00;6.75;;;;;28.71;31.30;101203.59;4932251;28;45357;-52
2022/07/19 03:17:56;;;;;;;;;5.25;4.75;;;;;28.68;31.13;101206.69;4934007;28;45378;-51
2022/07/19 03:20:22;;;;;;;;;5.25;5.25;;;;;28.68;31.68;101205.88;4931745;28;45607;-51
2022/07/19 03:22:48;;;;;;;;;9.75;6.50;;;;;28.65;31.54;101209.78;4931417;28;45441;-50
2022/07/19 03:25:13;;;;;;;;;10.75;5.50;;;;;28.61;31.46;101217.50;4931353;28;45617;-51
2022/07/19 03:27:39;;;;;;;;;6.75;6.75;;;;;28.59;31.90;101216.00;4933850;28;45844;-49
2022/07/19 03:30:05;;;;;;;;;7.25;5.75;;;;;28.54;31.69;101219.31;4932046;28;45548;-50
2022/07/19 03:32:30;;;;;;;;;3.50;3.50;;;;;28.47;31.54;101217.59;4930041;28;46296;-50
2022/07/19 03:34:56;;;;;;;;;3.50;1.00;;;;;28.41;31.60;101221.91;4929959;28;45773;-50
2022/07/19 03:37:21;;;;;;;;;5.25;5.25;;;;;28.38;31.88;101221.47;4929349;28;45515;-48
2022/07/19 03:39:47;;;;;;;;;8.00;7.25;;;;;28.35;31.81;101215.41;4932788;28;45842;-49
2022/07/19 03:42:12;;;;;;;;;6.25;5.25;;;;;28.35;32.11;101214.56;4934316;28;46265;-49
2022/07/19 03:44:38;;;;;;;;;6.25;5.25;;;;;28.32;32.19;101207.66;4931423;28;45389;-49
2022/07/19 03:47:03;;;;;;;;;9.50;7.75;;;;;28.29;32.38;101215.34;4933807;28;45637;-53
2022/07/19 03:49:29;;;;;;;;;9.50;7.00;;;;;28.29;31.94;101215.34;4929557;28;45369;-54
2022/07/19 03:51:54;;;;;;;;;9.75;6.75;;;;;28.25;32.18;101212.16;4933143;28;45760;-51
2022/07/19 03:54:19;;;;;;;;;8.50;7.25;;;;;28.24;32.54;101210.50;4929851;28;45422;-55
2022/07/19 03:56:45;;;;;;;;;7.25;7.25;;;;;28.23;32.49;101216.94;4929229;28;45453;-53
2022/07/19 03:59:10;;;;;;;;;6.50;6.25;;;;;28.23;32.18;101216.09;4931267;28;45387;-53
2022/07/19 04:01:37;;;;;;;;;9.50;8.00;;;;;28.19;32.49;101217.50;4932004;28;45366;-50
2022/07/19 04:04:04;;;;;;;;;10.50;6.75;;;;;28.17;32.56;101214.16;4931156;28;45450;-53
2022/07/19 04:06:30;;;;;;;;;8.50;8.00;;;;;28.15;32.39;101217.09;4931074;28;45491;-52
2022/07/19 04:08:56;;;;;;;;;7.25;7.25;;;;;28.13;32.06;101212.91;4930763;28;45923;-48
2022/07/19 04:11:21;;;;;;;;;8.75;6.00;;;;;28.12;32.27;101213.91;4933313;28;45693;-50
2022/07/19 04:13:47;;;;;;;;;10.75;7.00;;;;;28.08;32.75;101211.59;4928381;28;45482;-52
2022/07/19 04:16:12;;;;;;;;;8.00;8.00;;;;;28.04;32.84;101218.44;4928252;28;45747;-53
2022/07/19 04:18:38;;;;;;;;;10.50;9.00;;;;;28.01;32.54;101216.13;4943430;28;45612;-51
2022/07/19 04:21:04;;;;;;;;;9.25;8.25;;;;;28.01;32.79;101212.56;4933445;28;46410;-53
2022/07/19 04:23:31;;;;;;;;;9.75;7.00;;;;;28.00;32.88;101211.72;4930449;28;45464;-52
2022/07/19 04:25:56;;;;;;;;;14.75;10.50;;;;;28.02;32.82;101214.25;4930067;28;45259;-53
2022/07/19 04:28:22;;;;;;;;;11.50;8.75;;;;;28.02;32.44;101206.13;4929357;28;45715;-50
2022/07/19 04:30:47;;;;;;;;;8.75;8.25;;;;;28.01;32.64;101209.84;4929012;28;46017;-51
2022/07/19 04:33:14;;;;;;;;;12.75;10.00;;;;;28.00;32.69;101208.19;4933795;28;45360;-53
2022/07/19 04:35:41;;;;;;;;;10.00;8.25;;;;;28.02;33.05;101211.53;4934412;28;45593;-53
2022/07/19 04:38:06;;;;;;;;;13.25;11.25;;;;;28.03;32.65;101205.91;4934003;28;45534;-53
2022/07/19 04:40:31;;;;;;;;;12.25;9.00;;;;;28.07;32.72;101206.38;4938230;28;45509;-53
2022/07/19 04:42:57;;;;;;;;;11.00;9.00;;;;;28.08;32.55;101200.75;4935240;28;45671;-53
2022/07/19 04:45:22;;;;;;;;;14.25;9.50;;;;;28.10;32.42;101203.28;4934157;28;45528;-51
2022/07/19 04:47:48;;;;;;;;;17.50;13.50;;;;;28.10;32.53;101204.09;4936606;28;45574;-54
2022/07/19 04:50:13;;;;;;;;;12.25;8.50;;;;;28.12;32.74;101205.78;4916532;28;47381;-53
2022/07/19 04:52:39;;;;;;;;;13.75;12.00;;;;;28.13;32.58;101200.19;4933024;28;45476;-52
2022/07/19 04:55:05;;;;;;;;;11.25;10.25;;;;;28.15;32.25;101200.81;4932237;28;45333;-54
2022/07/19 04:57:30;;;;;;;;;9.75;8.25;;;;;28.16;32.49;101191.66;4931449;28;45440;-53
2022/07/19 04:59:56;;;;;;;;;11.25;10.00;;;;;28.15;32.56;101192.69;4933342;28;45902;-53
2022/07/19 05:02:21;;;;;;;;;10.75;9.50;;;;;28.16;33.16;101193.53;4933834;28;45465;-52
2022/07/19 05:04:47;;;;;;;;;17.75;9.50;;;;;28.15;33.06;101183.75;4933960;28;45366;-51
2022/07/19 05:07:12;;;;;;;;;9.50;7.50;;;;;28.15;32.75;101190.00;4935498;28;45418;-52
2022/07/19 05:09:38;;;;;;;;;11.25;10.00;;;;;28.17;32.76;101187.09;4933002;28;46078;-51
2022/07/19 05:12:07;;;;;;;;;13.00;9.00;;;;;28.16;32.43;101190.81;4936075;28;45408;-50
2022/07/19 05:14:33;;;;;;;;;10.25;9.75;;;;;28.14;32.76;101193.75;4933711;28;45429;-49
2022/07/19 05:16:59;;;;;;;;;10.00;9.00;;;;;28.14;32.67;101191.03;4934532;28;45393;-49
2022/07/19 05:19:25;;;;;;;;;13.75;11.50;;;;;28.10;32.93;101193.28;4933415;28;46940;-49
2022/07/19 05:21:50;;;;;;;;;12.00;10.00;;;;;28.08;33.08;101192.63;4933324;28;45781;-49
2022/07/19 05:24:16;;;;;;;;;11.25;8.75;;;;;28.06;32.78;101186.59;4933055;28;45532;-51
2022/07/19 05:26:42;;;;;;;;;11.75;8.50;;;;;28.07;33.26;101190.13;4935693;28;45516;-52
2022/07/19 05:29:08;;;;;;;;;13.00;9.25;;;;;28.06;33.05;101192.00;4933309;28;45624;-49
2022/07/19 05:31:33;;;;;;;;;11.75;8.75;;;;;28.08;33.53;101191.81;4930275;28;45626;-53
2022/07/19 05:33:59;;;;;;;;;13.50;9.25;;;;;28.11;33.24;101194.09;4932462;28;45435;-54
2022/07/19 05:36:24;;;;;;;;;10.25;10.00;;;;;28.15;33.82;101190.00;4932065;28;46564;-52
2022/07/19 05:38:50;;;;;;;;;14.50;9.25;;;;;28.19;33.56;101188.56;4932870;28;46139;-52
2022/07/19 05:41:16;;;;;;;;;9.75;7.25;;;;;28.25;33.35;101189.66;4935493;28;45487;-54
2022/07/19 05:43:42;;;;;;;;;16.00;11.00;;;;;28.32;33.74;101185.16;4932047;28;45610;-50
2022/07/19 05:46:08;;;;;;;;;12.00;10.25;;;;;28.37;33.49;101185.41;4935657;28;45596;-53
2022/07/19 05:48:33;;;;;;;;;14.00;10.25;;;;;28.46;33.66;101186.09;4932788;28;45550;-54
2022/07/19 05:50:59;;;;;;;;;13.25;12.00;;;;;28.54;33.22;101184.06;4934808;28;46364;-53
2022/07/19 05:53:25;;;;;;;;;12.50;10.50;;;;;28.62;32.99;101186.63;4931083;28;45796;-49
2022/07/19 05:55:51;;;;;;;;;12.75;12.25;;;;;28.69;33.29;101183.97;4933110;28;45342;-49
2022/07/19 05:58:19;;;;;;;;;12.50;12.00;;;;;28.78;32.83;101179.22;4932620;28;46602;-50
2022/07/19 06:03:30;;;;;;;;;11.75;9.25;;;;;28.96;32.98;101170.59;4935640;28;45454;-53
2022/07/19 06:05:55;;;;;;;;;9.00;9.00;;;;;29.03;32.77;101175.00;4933424;28;45747;-49
2022/07/19 06:08:21;;;;;;;;;15.25;11.75;;;;;29.10;32.64;101178.59;4932659;28;46574;-49
2022/07/19 06:10:46;;;;;;;;;14.00;12.75;;;;;29.18;32.20;101175.69;4933018;28;45662;-53
2022/07/19 06:13:12;;;;;;;;;10.50;8.00;;;;;29.26;32.20;101171.13;4933047;28;45454;-42
2022/07/19 06:15:38;;;;;;;;;15.25;10.00;;;;;29.33;32.63;101178.28;4934272;28;45413;-43
2022/07/19 06:18:03;;;;;;;;;12.00;9.00;;;;;29.41;31.96;101175.38;4935188;28;46138;-44
2022/07/19 06:20:28;;;;;;;;;11.00;9.25;;;;;29.47;32.44;101171.00;4941767;28;45302;-44
2022/07/19 06:22:54;;;;;;;;;11.25;10.25;;;;;29.52;31.96;101170.41;4938330;28;45436;-45
2022/07/19 06:25:20;;;;;;;;;11.50;10.75;;;;;29.53;32.33;101164.78;4940341;28;45515;-44
2022/07/19 06:27:45;;;;;;;;;13.00;10.50;;;;;29.58;32.42;101164.16;4936379;28;45432;-43
2022/07/19 06:30:11;;;;;;;;;21.75;18.00;;;;;29.61;31.93;101161.88;4938877;28;45361;-43
2022/07/19 06:32:36;;;;;;;;;10.75;9.00;;;;;29.69;31.53;101160.84;4936366;28;45164;-43
2022/07/19 06:35:02;;;;;;;;;14.75;11.25;;;;;29.72;31.87;101160.44;4939305;28;45522;-45
2022/07/19 06:37:28;;;;;;;;;13.50;10.50;;;;;29.78;31.77;101142.47;4933497;28;45404;-43
2022/07/19 06:39:53;;;;;;;;;11.75;8.75;;;;;29.89;32.05;101147.28;4938827;28;45301;-52
2022/07/19 06:42:19;;;;;;;;;14.25;11.00;;;;;30.02;31.63;101139.16;4936401;28;45558;-49
2022/07/19 06:44:44;;;;;;;;;14.50;13.00;;;;;30.15;31.60;101135.63;4938163;28;45430;-50
2022/07/19 06:47:10;;;;;;;;;11.00;10.00;;;;;30.26;31.52;101135.84;4936371;28;46526;-49
2022/07/19 06:49:35;;;;;;;;;12.00;10.50;;;;;30.39;31.07;101139.56;4933827;28;46427;-48
2022/07/19 06:52:01;;;;;;;;;13.25;10.00;;;;;30.52;31.57;101140.38;4934924;28;45541;-51
2022/07/19 06:54:27;;;;;;;;;12.00;11.25;;;;;30.62;30.69;101120.91;4938731;28;45488;-50
2022/07/19 06:56:53;;;;;;;;;12.50;9.50;;;;;30.74;30.65;101132.00;4939494;28;45533;-50
2022/07/19 06:59:19;;;;;;;;;10.25;9.00;;;;;30.82;30.39;101132.59;4939714;28;45571;-48
2022/07/19 07:01:44;;;;;;;;;10.75;9.75;;;;;30.91;30.55;101121.47;4937947;28;45465;-49
2022/07/19 07:04:10;;;;;;;;;12.00;9.00;;;;;30.99;30.10;101132.94;4936020;28;45353;-50
2022/07/19 07:06:35;;;;;;;;;13.00;11.00;;;;;31.05;29.96;101129.38;4935404;28;46007;-51
2022/07/19 07:09:02;;;;;;;;;14.00;12.00;;;;;31.11;29.64;101124.94;4936613;28;45228;-52
2022/07/19 07:11:28;;;;;;;;;12.50;11.50;;;;;31.19;29.98;101124.69;4938623;28;45267;-52
2022/07/19 07:13:54;;;;;;;;;12.75;11.50;;;;;31.27;29.49;101121.72;4935036;28;45618;-53
2022/07/19 07:16:19;;;;;;;;;14.50;9.75;;;;;31.37;29.73;101129.44;4936513;28;46259;-53
2022/07/19 07:18:45;;;;;;;;;12.75;10.25;;;;;31.43;29.54;101125.00;4935595;28;45299;-53
2022/07/19 07:21:10;;;;;;;;;11.50;10.50;;;;;31.50;29.47;101115.72;4938780;28;45314;-52
2022/07/19 07:23:35;;;;;;;;;11.00;11.00;;;;;31.57;29.29;101121.97;4934549;28;45309;-50
2022/07/19 07:26:01;;;;;;;;;10.25;9.50;;;;;31.65;28.87;101123.59;4937279;28;45449;-52
2022/07/19 07:28:27;;;;;;;;;12.25;10.25;;;;;31.71;29.10;101119.16;4938323;28;45433;-51
2022/07/19 07:30:53;;;;;;;;;7.50;6.75;;;;;31.77;28.65;101119.16;4936871;28;45456;-48
2022/07/19 07:33:18;;;;;;;;;12.00;10.75;;;;;31.82;28.88;101115.75;4930041;28;45764;-54
2022/07/19 07:35:44;;;;;;;;;12.50;10.00;;;;;31.87;28.81;101114.03;4929185;28;45443;-52
2022/07/19 07:38:09;;;;;;;;;8.00;7.75;;;;;31.92;28.33;101107.94;4930832;28;45496;-52
2022/07/19 07:40:35;;;;;;;;;9.75;8.25;;;;;31.95;28.38;101105.56;4934356;28;45383;-55
2022/07/19 07:43:02;;;;;;;;;11.75;10.75;;;;;32.01;28.09;101103.03;4933658;28;45403;-52
2022/07/19 07:45:29;;;;;;;;;12.25;10.75;;;;;32.03;28.28;101101.75;4931175;28;45398;-52
2022/07/19 07:47:54;;;;;;;;;10.00;9.00;;;;;32.07;27.95;101099.38;4928776;28;45485;-54
2022/07/19 07:50:20;;;;;;;;;12.00;9.75;;;;;32.13;28.09;101093.03;4929106;28;45409;-48
2022/07/19 07:52:45;;;;;;;;;12.50;9.25;;;;;32.18;28.01;101101.38;4934375;28;45793;-52
2022/07/19 07:55:10;;;;;;;;;10.50;10.50;;;;;32.23;28.20;101096.06;4930599;28;47069;-51
2022/07/19 07:57:36;;;;;;;;;8.75;8.75;;;;;32.29;28.04;101094.34;4933224;28;45827;-51
2022/07/19 08:00:04;;;;;;;;;8.50;8.25;;;;;32.27;27.79;101094.59;4926909;28;45425;-51
2022/07/19 08:02:29;;;;;;;;;8.25;8.25;;;;;32.29;27.49;101089.72;4935472;28;45373;-52
2022/07/19 08:04:55;;;;;;;;;10.25;8.50;;;;;32.33;27.50;101087.44;4931161;28;45469;-47
2022/07/19 08:07:20;;;;;;;;;9.25;8.75;;;;;32.37;27.21;101091.38;4936364;28;45532;-50
2022/07/19 08:09:46;;;;;;;;;9.25;6.25;;;;;32.41;27.53;101087.97;4931887;28;45413;-50
2022/07/19 08:12:11;;;;;;;;;11.00;10.00;;;;;32.48;27.39;101079.72;4932521;28;45564;-52
2022/07/19 08:14:37;;;;;;;;;11.25;9.25;;;;;32.54;27.36;101073.34;4940482;28;45627;-52
2022/07/19 08:17:02;;;;;;;;;12.00;9.75;;;;;32.61;26.82;101076.81;4931546;28;45209;-49
2022/07/19 08:19:28;;;;;;;;;12.25;9.25;;;;;32.67;27.15;101062.28;4925525;28;45291;-50
2022/07/19 08:21:53;;;;;;;;;12.00;10.75;;;;;32.72;27.16;101065.16;4925509;28;45644;-48
2022/07/19 08:24:19;;;;;;;;;10.00;8.25;;;;;32.79;27.03;101067.81;4925932;28;46213;-48
2022/07/19 08:26:44;;;;;;;;;9.25;7.00;;;;;32.85;27.08;101055.16;4926011;28;45334;-50
2022/07/19 08:29:10;;;;;;;;;11.50;11.50;;;;;32.89;27.01;101053.63;4926218;28;45295;-52
2022/07/19 08:31:35;;;;;;;;;13.00;11.50;;;;;32.95;26.69;101053.56;4926140;28;45539;-52
2022/07/19 08:34:01;;;;;;;;;11.75;9.00;;;;;32.99;26.78;101049.28;4926029;28;45426;-52
2022/07/19 08:36:26;;;;;;;;;12.50;10.00;;;;;33.06;26.63;101054.66;4925971;28;45314;-49
2022/07/19 08:38:51;;;;;;;;;11.00;9.75;;;;;33.11;26.45;101054.81;4925942;28;45357;-52
2022/07/19 08:41:17;;;;;;;;;10.25;8.00;;;;;33.16;26.72;101056.81;4940558;28;45274;-53
2022/07/19 08:43:43;;;;;;;;;11.00;8.50;;;;;33.23;25.98;101052.09;4943488;28;45389;-52
2022/07/19 08:46:08;;;;;;;;;11.25;9.25;;;;;33.30;26.55;101053.66;4926004;28;45302;-52
2022/07/19 08:48:35;;;;;;;;;9.75;9.75;;;;;33.37;25.45;101052.72;4925920;28;45501;-50
2022/07/19 08:51:02;;;;;;;;;12.25;8.25;;;;;33.39;25.74;101047.91;4926380;28;45186;-49
2022/07/19 08:53:33;;;;;;;;;10.25;8.75;;;;;33.44;25.52;101037.94;4925266;28;45581;-53
2022/07/19 08:55:59;;;;;;;;;14.00;9.00;;;;;33.49;25.47;101039.94;4925769;28;45389;-51
2022/07/19 08:58:25;;;;;;;;;11.50;10.00;;;;;33.52;25.72;101037.59;4925549;28;45437;-50
2022/07/19 09:00:51;;;;;;;;;14.25;10.75;;;;;33.58;24.85;101041.28;4925754;28;45476;-48
2022/07/19 09:03:16;;;;;;;;;10.25;8.25;;;;;33.68;25.31;101029.78;4925496;28;45372;-52
2022/07/19 09:05:41;;;;;;;;;9.50;9.00;;;;;33.78;25.32;101038.22;4930913;28;45278;-49
2022/07/19 09:08:16;;;;;;;;;8.50;8.00;;;;;33.85;25.17;101026.09;4925146;28;45346;-51
2022/07/19 09:13:32;;;;;;;;;11.50;7.00;;;;;33.97;25.06;101026.13;4925643;28;45328;-49
2022/07/19 09:15:57;;;;;;;;;9.00;8.00;;;;;34.01;24.53;101024.56;4925500;28;45528;-51
2022/07/19 09:18:24;;;;;;;;;11.50;9.50;;;;;34.06;25.15;101021.97;4936030;28;45304;-51
2022/07/19 09:21:01;;;;;;;;;9.75;8.25;;;;;34.14;24.44;101021.59;4925535;28;45366;-51
2022/07/19 09:23:27;;;;;;;;;9.00;8.50;;;;;34.26;24.53;101020.72;4924923;28;45402;-51
2022/07/19 09:26:01;;;;;;;;;9.00;8.25;;;;;34.38;24.02;101016.06;4925267;28;45256;-52
2022/07/19 09:28:29;;;;;;;;;12.75;9.25;;;;;34.45;24.67;101011.34;4925590;28;45207;-52
2022/07/19 09:30:57;;;;;;;;;13.00;10.25;;;;;34.54;24.21;101006.31;4925212;28;45517;-51
2022/07/19 09:33:27;;;;;;;;;9.25;8.00;;;;;34.61;24.04;101004.28;4925290;28;45994;-53
2022/07/19 09:35:59;;;;;;;;;11.25;8.50;;;;;34.69;24.03;101004.72;4925023;28;45473;-51
2022/07/19 09:38:35;;;;;;;;;8.00;8.00;;;;;34.81;23.91;100995.59;4924985;28;45216;-52
2022/07/19 09:41:06;;;;;;;;;20.50;19.75;;;;;34.92;23.71;100987.38;4937197;28;45167;-53
2022/07/19 09:43:51;;;;;;;;;11.50;9.50;;;;;35.04;23.29;100990.03;4944077;28;45343;-53
2022/07/19 09:46:31;;;;;;;;;11.50;9.50;;;;;35.18;22.54;100985.91;4935582;28;45298;-51
2022/07/19 09:49:05;;;;;;;;;12.00;11.50;;;;;35.30;22.45;100980.34;4925076;28;45298;-48
2022/07/19 09:51:33;;;;;;;;;8.75;8.50;;;;;35.40;22.50;100982.47;4925056;28;45251;-51
2022/07/19 09:53:59;;;;;;;;;8.75;7.75;;;;;35.47;22.29;100974.88;4924452;28;45299;-53
2022/07/19 09:56:28;;;;;;;;;11.75;8.00;;;;;35.55;22.15;100977.22;4925016;28;45652;-53
2022/07/19 09:58:55;;;;;;;;;8.75;8.75;;;;;35.62;21.86;100969.63;4924906;28;45287;-50
2022/07/19 10:01:21;;;;;;;;;11.00;8.25;;;;;35.73;21.67;100968.72;4925099;28;45228;-50
2022/07/19 10:03:47;;;;;;;;;9.50;7.50;;;;;35.84;21.42;100963.38;4924688;28;45232;-52
2022/07/19 10:06:13;;;;;;;;;8.50;8.00;;;;;35.91;21.50;100966.81;4930044;28;45444;-52
2022/07/19 10:08:39;;;;;;;;;8.25;8.00;;;;;35.98;21.38;100964.72;4924324;28;45469;-50
2022/07/19 10:11:05;;;;;;;;;9.25;8.75;;;;;36.05;20.86;100968.09;4925017;28;45359;-50
2022/07/19 10:13:32;;;;;;;;;12.00;8.00;;;;;36.13;21.12;100961.34;4924507;28;45366;-51
2022/07/19 10:16:00;;;;;;;;;9.00;8.00;;;;;36.18;20.83;100954.00;4924792;28;45386;-49
2022/07/19 10:18:37;;;;;;;;;11.75;8.25;;;;;36.24;20.74;100957.63;4935931;28;45232;-52
2022/07/19 10:21:03;;;;;;;;;7.75;7.50;;;;;36.30;20.71;100951.94;4924625;28;45501;-51
2022/07/19 10:23:31;;;;;;;;;12.00;10.00;;;;;36.42;20.66;100953.75;4924010;28;46087;-51
2022/07/19 10:25:57;;;;;;;;;9.25;8.00;;;;;36.53;20.68;100944.56;4924189;28;45339;-53
2022/07/19 10:28:37;;;;;;;;;8.00;7.00;;;;;36.59;20.38;100933.38;4923777;28;45414;-52
2022/07/19 10:31:22;;;;;;;;;11.25;8.00;;;;;36.66;20.16;100933.19;4924540;28;45536;-54
2022/07/19 10:33:58;;;;;;;;;12.25;11.25;;;;;36.81;20.02;100926.97;4924092;28;45238;-53
2022/07/19 10:36:37;;;;;;;;;8.00;8.00;;;;;36.87;20.18;100918.56;4931526;28;45355;-49
2022/07/19 10:39:20;;;;;;;;;8.00;7.00;;;;;36.99;19.89;100907.41;4943034;28;45382;-51
2022/07/19 10:42:11;;;;;;;;;7.50;6.00;;;;;37.06;19.47;100918.19;4943553;28;45401;-49
2022/07/19 10:45:12;;;;;;;;;9.25;8.75;;;;;37.12;19.12;100906.13;4924108;28;46232;-49
2022/07/19 10:47:42;;;;;;;;;9.25;8.50;;;;;37.18;19.44;100905.91;4890796;29;45403;-50
2022/07/19 10:50:18;;;;;;;;;8.50;7.00;;;;;37.26;18.95;100901.84;4935892;28;45255;-51
2022/07/19 10:52:45;;;;;;;;;12.25;8.00;;;;;37.36;19.09;100901.94;4943090;28;45318;-53
2022/07/19 10:55:34;;;;;;;;;9.50;7.00;;;;;37.43;19.03;100901.69;4942959;28;47162;-50
2022/07/19 10:58:06;;;;;;;;;10.00;9.25;;;;;37.54;18.39;100895.19;4943201;28;45240;-51
2022/07/19 11:00:47;;;;;;;;;9.75;7.00;;;;;37.63;18.61;100901.00;4943222;28;45433;-52
2022/07/19 11:03:22;;;;;;;;;9.00;9.00;;;;;37.67;18.42;100888.34;4942915;28;45252;-51
2022/07/19 11:05:53;;;;;;;;;8.75;8.50;;;;;37.69;18.33;100887.03;4933489;28;46260;-52
2022/07/19 11:08:36;;;;;;;;;7.00;6.25;;;;;37.74;18.35;100875.19;4923346;28;45486;-50
2022/07/19 11:11:07;;;;;;;;;6.50;6.50;;;;;37.84;18.14;100877.19;4923930;28;45318;-52
2022/07/19 11:13:37;;;;;;;;;8.25;8.25;;;;;37.93;18.06;100870.94;4930309;28;45234;-52
2022/07/19 11:16:04;;;;;;;;;10.25;7.50;;;;;37.99;17.83;100880.81;4942634;28;46430;-51
2022/07/19 11:18:30;;;;;;;;;9.00;8.50;;;;;38.02;17.46;100882.22;4935599;28;45291;-51
2022/07/19 11:21:00;;;;;;;;;11.50;8.75;;;;;38.09;17.80;100859.97;4923521;28;45243;-51
2022/07/19 11:23:38;;;;;;;;;12.50;8.25;;;;;38.17;18.04;100865.78;4923431;28;45820;-54
2022/07/19 11:26:08;;;;;;;;;8.25;8.25;;;;;38.22;17.51;100859.44;4923292;28;46548;-53